createdAt,value
2022-10-29T00:01:01.117Z,81.27
2022-10-29T00:03:28.199Z,81.38
2022-10-29T00:06:04.267Z,81.00
2022-10-29T00:08:34.676Z,80.48
2022-10-29T00:11:23.108Z,80.59
2022-10-29T00:13:57.061Z,80.90
2022-10-29T00:16:34.227Z,80.08
2022-10-29T00:19:01.625Z,79.91
2022-10-29T00:21:28.806Z,79.60
2022-10-29T00:23:58.214Z,79.45
2022-10-29T00:26:27.826Z,79.48
2022-10-29T00:28:57.827Z,79.38
2022-10-29T00:31:25.948Z,78.74
2022-10-29T00:33:55.606Z,79.22
2022-10-29T00:36:26.883Z,78.84
2022-10-29T00:38:54.187Z,79.25
2022-10-29T00:41:27.050Z,79.87
2022-10-29T00:44:22.881Z,78.66
2022-10-29T00:46:57.046Z,78.91
2022-10-29T00:49:25.228Z,78.82
2022-10-29T00:51:55.995Z,78.18
2022-10-29T00:54:23.584Z,78.70
2022-10-29T00:56:57.299Z,78.50
2022-10-29T00:59:25.436Z,78.08
2022-10-29T01:01:57.450Z,78.69
2022-10-29T01:04:27.998Z,78.12
2022-10-29T01:06:57.790Z,78.47
2022-10-29T01:09:26.431Z,78.12
2022-10-29T01:12:02.160Z,78.06
2022-10-29T01:15:08.058Z,78.47
2022-10-29T01:18:17.515Z,78.36
2022-10-29T01:21:16.806Z,78.35
2022-10-29T01:24:23.419Z,78.36
2022-10-29T01:27:33.259Z,78.76
2022-10-29T01:30:29.488Z,79.05
2022-10-29T01:33:23.675Z,79.50
2022-10-29T01:36:20.251Z,78.85
2022-10-29T01:39:02.299Z,79.50
2022-10-29T01:41:34.777Z,79.60
2022-10-29T01:44:07.646Z,79.38
2022-10-29T01:46:56.128Z,79.47
2022-10-29T01:49:50.609Z,79.71
2022-10-29T01:52:22.113Z,79.58
2022-10-29T01:54:49.558Z,79.04
2022-10-29T01:57:25.742Z,79.04
2022-10-29T01:59:56.107Z,79.33
2022-10-29T02:02:31.645Z,79.74
2022-10-29T02:05:22.473Z,79.09
2022-10-29T02:08:39.291Z,79.50
2022-10-29T02:11:15.979Z,79.14
2022-10-29T02:13:53.996Z,78.63
2022-10-29T02:16:22.931Z,78.78
2022-10-29T02:18:50.327Z,78.39
2022-10-29T02:21:18.979Z,78.92
2022-10-29T02:23:46.745Z,79.15
2022-10-29T02:26:14.333Z,79.23
2022-10-29T02:28:41.451Z,79.18
2022-10-29T02:31:09.854Z,79.30
2022-10-29T02:33:36.973Z,78.79
2022-10-29T02:36:04.677Z,79.45
2022-10-29T02:38:31.788Z,78.82
2022-10-29T02:40:58.896Z,79.49
2022-10-29T02:43:26.090Z,78.86
2022-10-29T02:46:20.867Z,78.99
2022-10-29T02:48:48.949Z,79.56
2022-10-29T02:51:17.681Z,78.19
2022-10-29T02:53:45.227Z,78.64
2022-10-29T02:56:12.744Z,78.63
2022-10-29T02:58:44.120Z,79.50
2022-10-29T03:01:11.353Z,79.81
2022-10-29T03:03:38.585Z,78.74
2022-10-29T03:06:14.163Z,79.12
2022-10-29T03:08:43.881Z,79.64
2022-10-29T03:11:13.717Z,78.99
2022-10-29T03:13:40.868Z,79.93
2022-10-29T03:16:08.268Z,79.13
2022-10-29T03:18:35.596Z,79.44
2022-10-29T03:21:02.867Z,80.03
2022-10-29T03:23:30.051Z,80.19
2022-10-29T03:25:57.827Z,79.26
2022-10-29T03:28:27.945Z,78.79
2022-10-29T03:30:55.226Z,79.99
2022-10-29T03:33:22.719Z,79.76
2022-10-29T03:35:49.878Z,80.35
2022-10-29T03:38:19.474Z,79.68
2022-10-29T03:40:46.554Z,79.58
2022-10-29T03:43:16.209Z,79.93
2022-10-29T03:45:45.723Z,80.13
2022-10-29T03:48:12.851Z,81.13
2022-10-29T03:50:39.943Z,80.62
2022-10-29T03:53:07.061Z,80.82
2022-10-29T03:55:37.037Z,80.94
2022-10-29T03:58:04.081Z,81.73
2022-10-29T04:00:33.463Z,81.57
2022-10-29T04:03:01.402Z,81.09
2022-10-29T04:05:28.816Z,81.11
2022-10-29T04:07:55.878Z,81.10
2022-10-29T04:10:25.949Z,81.62
2022-10-29T04:12:53.615Z,81.39
2022-10-29T04:15:21.063Z,81.43
2022-10-29T04:17:51.590Z,80.64
2022-10-29T04:20:43.050Z,81.95
2022-10-29T04:28:52.133Z,81.69
2022-10-29T04:31:19.484Z,82.04
2022-10-29T04:33:46.673Z,82.46
2022-10-29T04:36:13.842Z,82.25
2022-10-29T04:38:41.225Z,82.60
2022-10-29T04:41:08.458Z,82.59
2022-10-29T04:43:35.687Z,82.62
2022-10-29T04:46:02.942Z,82.44
2022-10-29T04:48:30.381Z,82.78
2022-10-29T04:50:57.465Z,82.80
2022-10-29T04:53:24.690Z,82.27
2022-10-29T04:55:51.794Z,82.35
2022-10-29T04:58:21.403Z,82.76
2022-10-29T05:00:48.783Z,82.63
2022-10-29T05:03:18.492Z,82.61
2022-10-29T05:05:51.009Z,82.59
2022-10-29T05:08:20.331Z,82.85
2022-10-29T05:10:51.246Z,83.72
2022-10-29T05:13:18.371Z,83.87
2022-10-29T05:15:53.794Z,83.48
2022-10-29T05:18:21.213Z,84.22
2022-10-29T05:20:51.238Z,84.21
2022-10-29T05:23:18.316Z,84.16
2022-10-29T05:25:49.242Z,83.10
2022-10-29T05:28:19.675Z,83.77
2022-10-29T05:30:48.641Z,83.84
2022-10-29T05:33:25.523Z,84.32
2022-10-29T05:35:53.219Z,85.16
2022-10-29T05:38:20.646Z,84.33
2022-10-29T05:40:47.919Z,84.04
2022-10-29T05:43:17.037Z,84.90
2022-10-29T05:45:45.777Z,85.34
2022-10-29T05:48:13.915Z,85.20
2022-10-29T05:50:41.192Z,85.85
2022-10-29T05:53:15.065Z,85.95
2022-10-29T05:55:42.637Z,84.98
2022-10-29T05:58:13.273Z,84.96
2022-10-29T06:00:46.489Z,85.17
2022-10-29T06:03:19.129Z,85.36
2022-10-29T06:05:50.982Z,84.71
2022-10-29T06:08:19.442Z,85.54
2022-10-29T06:10:46.733Z,84.94
2022-10-29T06:13:18.831Z,84.76
2022-10-29T06:15:47.879Z,84.91
2022-10-29T06:18:16.175Z,84.21
2022-10-29T06:20:43.803Z,84.23
2022-10-29T06:23:11.280Z,84.41
2022-10-29T06:25:41.590Z,83.90
2022-10-29T06:28:15.465Z,84.38
2022-10-29T06:30:50.501Z,84.24
2022-10-29T06:33:19.320Z,83.67
2022-10-29T06:35:47.451Z,83.96
2022-10-29T06:38:17.533Z,83.31
2022-10-29T06:40:55.625Z,83.63
2022-10-29T06:43:22.757Z,84.22
2022-10-29T06:45:50.590Z,84.15
2022-10-29T06:48:22.364Z,83.10
2022-10-29T06:50:51.370Z,82.62
2022-10-29T06:53:19.533Z,81.97
2022-10-29T06:55:46.795Z,82.61
2022-10-29T06:58:17.745Z,81.92
2022-10-29T07:00:46.096Z,82.26
2022-10-29T07:03:19.951Z,81.76
2022-10-29T07:05:48.565Z,80.81
2022-10-29T07:08:15.856Z,81.86
2022-10-29T07:10:43.081Z,81.53
2022-10-29T07:13:10.966Z,81.10
2022-10-29T07:15:38.268Z,80.34
2022-10-29T07:18:13.317Z,80.53
2022-10-29T07:20:44.754Z,79.06
2022-10-29T07:23:15.921Z,79.46
2022-10-29T07:25:43.420Z,78.92
2022-10-29T07:28:20.980Z,78.93
2022-10-29T07:30:51.144Z,77.62
2022-10-29T07:33:18.943Z,78.75
2022-10-29T07:35:48.708Z,77.98
2022-10-29T07:38:17.989Z,78.62
2022-10-29T07:40:50.239Z,78.37
2022-10-29T07:43:18.568Z,78.88
2022-10-29T07:45:49.994Z,79.28
2022-10-29T07:48:19.679Z,79.27
2022-10-29T07:50:47.545Z,78.59
2022-10-29T07:53:15.069Z,78.65
2022-10-29T07:55:42.118Z,77.97
2022-10-29T07:58:12.598Z,79.72
2022-10-29T08:00:41.762Z,79.18
2022-10-29T08:03:11.853Z,79.56
2022-10-29T08:05:42.701Z,79.73
2022-10-29T08:08:10.652Z,78.64
2022-10-29T08:10:37.834Z,78.05
2022-10-29T08:13:06.761Z,78.36
2022-10-29T08:15:35.146Z,78.51
2022-10-29T08:18:04.872Z,77.44
2022-10-29T08:20:35.356Z,75.99
2022-10-29T08:23:02.567Z,74.29
2022-10-29T08:25:29.760Z,70.16
2022-10-29T08:28:05.460Z,65.46
2022-10-29T08:30:33.271Z,64.33
2022-10-29T08:33:04.732Z,64.08
2022-10-29T08:35:33.018Z,61.43
2022-10-29T08:38:00.459Z,60.11
2022-10-29T08:41:16.658Z,60.81
2022-10-29T08:44:17.439Z,59.27
2022-10-29T08:46:55.897Z,58.23
2022-10-29T08:49:35.754Z,58.66
2022-10-29T08:52:32.085Z,58.23
2022-10-29T08:55:25.731Z,56.56
2022-10-29T08:57:58.360Z,54.57
2022-10-29T09:00:37.720Z,53.51
2022-10-29T09:03:12.927Z,53.93
2022-10-29T09:05:54.912Z,53.74
2022-10-29T09:08:54.767Z,53.15
2022-10-29T09:12:09.720Z,52.78
2022-10-29T09:14:37.827Z,53.73
2022-10-29T09:17:58.689Z,54.65
2022-10-29T09:20:56.428Z,52.90
2022-10-29T09:23:50.054Z,52.54
2022-10-29T09:26:58.539Z,52.89
2022-10-29T09:30:00.787Z,54.16
2022-10-29T09:32:40.167Z,54.13
2022-10-29T09:35:15.212Z,52.84
2022-10-29T09:37:52.721Z,55.02
2022-10-29T09:40:42.795Z,57.34
2022-10-29T09:43:37.225Z,55.62
2022-10-29T09:46:22.119Z,53.63
2022-10-29T09:49:34.892Z,52.11
2022-10-29T09:52:33.280Z,52.18
2022-10-29T09:55:03.247Z,51.19
2022-10-29T09:57:34.750Z,55.35
2022-10-29T10:00:22.353Z,56.32
2022-10-29T10:03:17.807Z,58.40
2022-10-29T10:06:11.743Z,59.77
2022-10-29T10:09:06.176Z,59.96
2022-10-29T10:11:50.041Z,60.15
2022-10-29T10:14:23.796Z,61.87
2022-10-29T10:17:01.902Z,62.48
2022-10-29T10:20:25.883Z,62.80
2022-10-29T10:22:53.166Z,64.05
2022-10-29T10:25:38.071Z,63.52
2022-10-29T10:28:24.006Z,64.55
2022-10-29T10:31:14.510Z,62.96
2022-10-29T10:33:51.939Z,61.68
2022-10-29T10:36:26.523Z,59.53
2022-10-29T10:39:00.676Z,58.76
2022-10-29T10:41:35.469Z,57.03
2022-10-29T10:44:05.275Z,58.84
2022-10-29T10:46:38.557Z,58.46
2022-10-29T10:49:17.131Z,57.13
2022-10-29T10:51:53.525Z,56.37
2022-10-29T10:54:44.969Z,57.07
2022-10-29T10:57:12.012Z,54.76
2022-10-29T11:00:12.956Z,52.62
2022-10-29T11:03:01.759Z,53.15
2022-10-29T11:05:35.937Z,52.02
2022-10-29T11:08:16.345Z,50.92
2022-10-29T11:10:55.757Z,48.90
2022-10-29T11:13:33.962Z,48.60
2022-10-29T11:16:41.717Z,47.98
2022-10-29T11:19:49.151Z,47.55
2022-10-29T11:22:43.845Z,45.44
2022-10-29T11:25:23.791Z,43.80
2022-10-29T11:28:23.568Z,45.60
2022-10-29T11:30:59.887Z,46.82
2022-10-29T11:33:57.633Z,48.65
2022-10-29T11:36:30.417Z,49.30
2022-10-29T11:39:16.129Z,51.30
2022-10-29T11:42:01.438Z,52.48
2022-10-29T11:44:39.530Z,52.54
2022-10-29T11:47:54.499Z,53.66
2022-10-29T11:50:36.351Z,54.68
2022-10-29T11:53:24.488Z,55.55
2022-10-29T11:56:32.089Z,55.44
2022-10-29T11:59:27.134Z,54.39
2022-10-29T12:02:39.846Z,53.62
2022-10-29T12:05:59.434Z,51.90
2022-10-29T12:08:38.090Z,51.10
2022-10-29T12:11:42.990Z,51.19
2022-10-29T12:15:20.198Z,51.50
2022-10-29T12:17:56.449Z,51.55
2022-10-29T12:21:06.506Z,48.60
2022-10-29T12:23:57.589Z,49.43
2022-10-29T12:26:45.183Z,48.71
2022-10-29T12:29:47.881Z,48.39
2022-10-29T12:32:47.249Z,50.93
2022-10-29T12:35:51.838Z,53.41
2022-10-29T12:38:50.675Z,54.69
2022-10-29T12:41:43.716Z,55.21
2022-10-29T12:44:24.122Z,55.72
2022-10-29T12:46:54.085Z,56.51
2022-10-29T12:49:40.202Z,56.64
2022-10-29T12:52:12.929Z,55.83
2022-10-29T12:54:42.123Z,56.21
2022-10-29T12:57:15.110Z,56.95
2022-10-29T12:59:43.971Z,57.14
2022-10-29T13:02:38.273Z,58.32
2022-10-29T13:05:11.043Z,58.88
2022-10-29T13:07:45.123Z,59.61
2022-10-29T13:10:29.625Z,59.47
2022-10-29T13:12:59.841Z,59.93
2022-10-29T13:15:38.852Z,60.24
2022-10-29T13:18:32.205Z,60.51
2022-10-29T13:20:59.408Z,60.94
2022-10-29T13:23:40.904Z,61.39
2022-10-29T13:26:08.941Z,62.22
2022-10-29T13:28:35.893Z,62.18
2022-10-29T13:31:09.119Z,62.03
2022-10-29T13:33:36.100Z,62.23
2022-10-29T13:36:16.743Z,62.87
2022-10-29T13:39:06.850Z,62.93
2022-10-29T13:41:46.305Z,63.42
2022-10-29T13:44:29.375Z,63.59
2022-10-29T13:47:15.041Z,62.79
2022-10-29T13:49:46.060Z,63.45
2022-10-29T13:52:20.466Z,63.07
2022-10-29T13:55:00.317Z,63.24
2022-10-29T13:58:17.021Z,64.01
2022-10-29T14:00:46.463Z,62.66
2022-10-29T14:03:35.433Z,63.29
2022-10-29T14:06:31.505Z,62.49
2022-10-29T14:09:24.585Z,64.02
2022-10-29T14:12:04.719Z,63.76
2022-10-29T14:14:48.706Z,63.63
2022-10-29T14:17:19.248Z,64.21
2022-10-29T14:19:49.529Z,63.93
2022-10-29T14:22:36.523Z,63.66
2022-10-29T14:25:36.952Z,63.76
2022-10-29T14:28:17.623Z,64.17
2022-10-29T14:30:59.386Z,63.40
2022-10-29T14:33:31.805Z,63.43
2022-10-29T14:36:50.283Z,64.45
2022-10-29T14:39:32.864Z,63.70
2022-10-29T14:42:31.118Z,64.10
2022-10-29T14:45:03.044Z,64.33
2022-10-29T14:47:36.499Z,64.84
2022-10-29T14:50:21.457Z,65.68
2022-10-29T14:52:53.708Z,66.32
2022-10-29T14:55:35.335Z,66.00
2022-10-29T14:58:20.147Z,66.42
2022-10-29T15:00:56.333Z,66.19
2022-10-29T15:03:26.988Z,65.68
2022-10-29T15:06:16.554Z,65.89
2022-10-29T15:08:53.850Z,65.75
2022-10-29T15:11:34.568Z,65.93
2022-10-29T15:14:03.292Z,65.83
2022-10-29T15:16:32.011Z,66.41
2022-10-29T15:19:00.442Z,66.54
2022-10-29T15:21:33.257Z,67.39
2022-10-29T15:24:06.574Z,67.04
2022-10-29T15:26:45.657Z,68.26
2022-10-29T15:29:13.246Z,67.58
2022-10-29T15:31:53.585Z,67.60
2022-10-29T15:34:37.246Z,67.96
2022-10-29T15:37:33.714Z,68.17
2022-10-29T15:40:12.651Z,68.36
2022-10-29T15:42:41.104Z,68.55
2022-10-29T15:45:09.179Z,68.06
2022-10-29T15:47:40.414Z,69.36
2022-10-29T15:50:12.941Z,67.99
2022-10-29T15:52:48.753Z,67.99
2022-10-29T15:55:27.046Z,69.00
2022-10-29T15:58:04.858Z,68.69
2022-10-29T16:00:33.240Z,70.27
2022-10-29T16:03:13.757Z,69.15
2022-10-29T16:05:47.036Z,69.51
2022-10-29T16:08:17.730Z,69.27
2022-10-29T16:10:46.731Z,70.65
2022-10-29T16:13:13.816Z,70.40
2022-10-29T16:15:43.336Z,71.29
2022-10-29T16:18:11.503Z,71.15
2022-10-29T16:20:38.587Z,70.94
2022-10-29T16:23:05.670Z,70.92
2022-10-29T16:25:33.814Z,69.79
2022-10-29T16:28:03.590Z,70.45
2022-10-29T16:30:33.838Z,71.05
2022-10-29T16:33:02.203Z,71.36
2022-10-29T16:35:30.529Z,72.20
2022-10-29T16:37:58.140Z,71.93
2022-10-29T16:40:28.036Z,72.19
2022-10-29T16:42:55.802Z,71.91
2022-10-29T16:45:31.272Z,71.72
2022-10-29T16:48:01.317Z,72.33
2022-10-29T16:50:33.800Z,73.19
2022-10-29T16:53:10.273Z,73.64
2022-10-29T16:55:41.292Z,74.56
2022-10-29T16:58:16.567Z,73.55
2022-10-29T17:00:44.597Z,74.13
2022-10-29T17:03:16.710Z,73.08
2022-10-29T17:05:46.244Z,72.81
2022-10-29T17:08:13.756Z,73.30
2022-10-29T17:10:41.660Z,72.44
2022-10-29T17:13:11.323Z,72.09
2022-10-29T17:15:42.195Z,71.62
2022-10-29T17:18:12.093Z,71.48
2022-10-29T17:20:41.794Z,71.56
2022-10-29T17:23:08.954Z,71.70
2022-10-29T17:25:36.150Z,72.33
2022-10-29T17:28:03.770Z,72.28
2022-10-29T17:30:32.898Z,72.05
2022-10-29T17:33:00.543Z,71.89
2022-10-29T17:35:28.319Z,71.41
2022-10-29T17:37:55.405Z,71.95
2022-10-29T17:40:24.125Z,71.68
2022-10-29T17:42:51.435Z,71.84
2022-10-29T17:45:20.523Z,71.74
2022-10-29T17:47:47.817Z,71.88
2022-10-29T17:50:15.165Z,72.24
2022-10-29T17:52:44.778Z,72.60
2022-10-29T17:55:11.837Z,72.48
2022-10-29T17:57:38.922Z,72.61
2022-10-29T18:00:11.612Z,72.82
2022-10-29T18:02:38.738Z,73.03
2022-10-29T18:05:06.157Z,72.99
2022-10-29T18:07:33.700Z,72.95
2022-10-29T18:10:00.728Z,73.84
2022-10-29T18:12:27.856Z,73.46
2022-10-29T18:14:54.919Z,73.87
2022-10-29T18:17:21.961Z,73.93
2022-10-29T18:19:49.026Z,75.88
2022-10-29T18:22:16.300Z,74.93
2022-10-29T18:24:43.401Z,74.71
2022-10-29T18:27:10.496Z,75.31
2022-10-29T18:29:37.578Z,75.83
2022-10-29T18:32:05.172Z,75.28
2022-10-29T18:34:34.186Z,74.61
2022-10-29T18:37:01.309Z,74.90
2022-10-29T18:39:28.387Z,74.80
2022-10-29T18:41:55.514Z,75.20
2022-10-29T18:44:22.581Z,74.89
2022-10-29T18:46:52.087Z,74.84
2022-10-29T18:49:19.625Z,74.45
2022-10-29T18:51:46.718Z,74.70
2022-10-29T18:54:14.952Z,75.02
2022-10-29T18:56:42.543Z,75.92
2022-10-29T18:59:12.763Z,75.40
2022-10-29T19:01:40.465Z,75.35
2022-10-29T19:04:13.073Z,75.86
2022-10-29T19:06:40.579Z,75.23
2022-10-29T19:09:09.786Z,75.11
2022-10-29T19:11:39.591Z,75.12
2022-10-29T19:14:11.689Z,74.40
2022-10-29T19:16:38.826Z,75.18
2022-10-29T19:19:10.702Z,74.17
2022-10-29T19:21:39.413Z,74.25
2022-10-29T19:24:08.069Z,74.72
2022-10-29T19:26:36.210Z,73.91
2022-10-29T19:29:05.893Z,74.20
2022-10-29T19:31:35.673Z,74.35
2022-10-29T19:34:06.248Z,74.02
2022-10-29T19:36:35.457Z,74.53
2022-10-29T19:39:05.227Z,74.11
2022-10-29T19:41:32.851Z,73.78
2022-10-29T19:44:03.911Z,73.50
2022-10-29T19:46:31.254Z,73.70
2022-10-29T19:48:59.180Z,74.08
2022-10-29T19:51:26.971Z,74.09
2022-10-29T19:53:54.511Z,73.45
2022-10-29T19:56:22.188Z,73.21
2022-10-29T19:58:49.711Z,72.91
2022-10-29T20:01:18.372Z,73.66
2022-10-29T20:03:46.718Z,73.79
2022-10-29T20:06:15.151Z,74.37
2022-10-29T20:08:44.798Z,74.90
2022-10-29T20:11:12.124Z,75.13
2022-10-29T20:13:41.781Z,75.46
2022-10-29T20:16:17.189Z,75.20
2022-10-29T20:18:45.242Z,74.66
2022-10-29T20:21:13.839Z,75.67
2022-10-29T20:23:44.854Z,75.29
2022-10-29T20:26:12.093Z,75.02
2022-10-29T20:28:39.648Z,74.59
2022-10-29T20:31:31.053Z,74.79
2022-10-29T20:34:00.831Z,75.24
2022-10-29T20:36:32.181Z,74.56
2022-10-29T20:39:00.116Z,74.49
2022-10-29T20:41:28.377Z,74.17
2022-10-29T20:44:01.703Z,74.45
2022-10-29T20:46:29.563Z,74.22
2022-10-29T20:48:57.186Z,74.16
2022-10-29T20:51:25.211Z,74.09
2022-10-29T20:53:53.616Z,73.77
2022-10-29T20:56:23.736Z,74.12
2022-10-29T20:58:51.300Z,74.55
2022-10-29T21:01:21.432Z,74.70
2022-10-29T21:03:50.415Z,74.44
2022-10-29T21:06:19.162Z,74.27
2022-10-29T21:08:51.724Z,74.88
2022-10-29T21:11:21.447Z,74.38
2022-10-29T21:13:51.796Z,74.34
2022-10-29T21:16:23.109Z,74.73
2022-10-29T21:19:05.083Z,75.04
2022-10-29T21:21:43.405Z,75.41
2022-10-29T21:24:26.248Z,74.95
2022-10-29T21:26:57.479Z,75.54
2022-10-29T21:29:24.763Z,74.41
2022-10-29T21:31:51.836Z,74.43
2022-10-29T21:34:21.398Z,74.61
2022-10-29T21:36:48.494Z,75.22
2022-10-29T21:39:15.623Z,75.30
2022-10-29T21:41:42.876Z,75.46
2022-10-29T21:44:10.066Z,74.96
2022-10-29T21:46:39.814Z,75.66
2022-10-29T21:49:07.081Z,74.97
2022-10-29T21:51:34.317Z,74.60
2022-10-29T21:54:01.561Z,74.59
2022-10-29T21:56:28.760Z,74.21
2022-10-29T21:58:55.976Z,74.80
2022-10-29T22:01:23.300Z,74.93
2022-10-29T22:03:50.648Z,74.73
2022-10-29T22:06:23.612Z,74.85
2022-10-29T22:08:59.488Z,75.03
2022-10-29T22:11:28.761Z,75.13
2022-10-29T22:13:55.889Z,75.87
2022-10-29T22:16:23.415Z,76.27
2022-10-29T22:18:53.931Z,76.37
2022-10-29T22:21:24.586Z,75.69
2022-10-29T22:23:57.305Z,75.80
2022-10-29T22:26:29.011Z,75.63
2022-10-29T22:28:56.752Z,75.18
2022-10-29T22:31:24.731Z,75.37
2022-10-29T22:33:52.526Z,75.47
2022-10-29T22:36:25.939Z,76.02
2022-10-29T22:38:58.891Z,76.30
2022-10-29T22:41:29.810Z,76.03
2022-10-29T22:44:00.886Z,76.27
2022-10-29T22:46:30.132Z,76.59
2022-10-29T22:48:57.848Z,75.54
2022-10-29T22:51:30.187Z,75.92
2022-10-29T22:53:57.996Z,76.12
2022-10-29T22:56:29.256Z,76.28
2022-10-29T22:58:56.588Z,76.29
2022-10-29T23:01:40.314Z,76.42
2022-10-29T23:04:22.680Z,75.90
2022-10-29T23:06:50.013Z,76.16
2022-10-29T23:09:17.116Z,76.16
2022-10-29T23:11:46.948Z,76.25
2022-10-29T23:14:16.456Z,76.72
2022-10-29T23:16:43.766Z,77.35
2022-10-29T23:19:12.314Z,76.42
2022-10-29T23:21:39.665Z,76.12
2022-10-29T23:24:07.391Z,76.16
2022-10-29T23:26:34.527Z,76.40
2022-10-29T23:29:01.731Z,76.00
2022-10-29T23:31:29.371Z,75.63
2022-10-29T23:33:59.746Z,76.18
2022-10-29T23:36:27.865Z,76.01
2022-10-29T23:39:02.542Z,76.27
2022-10-29T23:41:33.747Z,76.29
2022-10-29T23:44:00.927Z,75.95
2022-10-29T23:46:28.038Z,76.11
2022-10-29T23:48:55.286Z,77.86
2022-10-29T23:51:22.531Z,79.17
2022-10-29T23:53:53.156Z,77.63
2022-10-29T23:56:26.052Z,76.86
2022-10-29T23:58:53.170Z,76.63
